sensor_id;sensor_type;location;lat;lon;timestamp;P1;durP1;ratioP1;P2;durP2;ratioP2
37535;SDS011;23379;51.554;6.736;2023-07-08T00:02:10;3.38;;;2.22;;
37535;SDS011;23379;51.554;6.736;2023-07-08T00:04:37;4.75;;;2.42;;
37535;SDS011;23379;51.554;6.736;2023-07-08T00:07:03;5.25;;;2.72;;
37535;SDS011;23379;51.554;6.736;2023-07-08T00:09:28;4.22;;;2.38;;
37535;SDS011;23379;51.554;6.736;2023-07-08T00:11:55;4.32;;;2.63;;
37535;SDS011;23379;51.554;6.736;2023-07-08T00:14:21;6.53;;;2.40;;
37535;SDS011;23379;51.554;6.736;2023-07-08T00:16:47;4.53;;;2.47;;
37535;SDS011;23379;51.554;6.736;2023-07-08T00:19:12;4.85;;;2.08;;
37535;SDS011;23379;51.554;6.736;2023-07-08T00:21:37;5.70;;;2.58;;
37535;SDS011;23379;51.554;6.736;2023-07-08T00:24:03;4.72;;;2.33;;
37535;SDS011;23379;51.554;6.736;2023-07-08T00:26:29;5.85;;;2.17;;
37535;SDS011;23379;51.554;6.736;2023-07-08T00:28:56;7.50;;;2.22;;
37535;SDS011;23379;51.554;6.736;2023-07-08T00:31:22;4.47;;;2.35;;
37535;SDS011;23379;51.554;6.736;2023-07-08T00:33:51;4.50;;;2.22;;
37535;SDS011;23379;51.554;6.736;2023-07-08T00:36:20;5.75;;;2.45;;
37535;SDS011;23379;51.554;6.736;2023-07-08T00:38:47;7.18;;;2.55;;
37535;SDS011;23379;51.554;6.736;2023-07-08T00:41:14;4.85;;;2.40;;
37535;SDS011;23379;51.554;6.736;2023-07-08T00:43:48;7.82;;;2.70;;
37535;SDS011;23379;51.554;6.736;2023-07-08T00:48:48;5.03;;;2.63;;
37535;SDS011;23379;51.554;6.736;2023-07-08T00:51:15;4.15;;;1.98;;
37535;SDS011;23379;51.554;6.736;2023-07-08T00:53:43;4.18;;;2.38;;
37535;SDS011;23379;51.554;6.736;2023-07-08T00:56:11;3.42;;;2.25;;
37535;SDS011;23379;51.554;6.736;2023-07-08T00:58:49;8.45;;;2.47;;
37535;SDS011;23379;51.554;6.736;2023-07-08T01:01:19;5.70;;;2.33;;
37535;SDS011;23379;51.554;6.736;2023-07-08T01:03:47;6.45;;;2.55;;
37535;SDS011;23379;51.554;6.736;2023-07-08T01:08:43;5.47;;;2.33;;
37535;SDS011;23379;51.554;6.736;2023-07-08T01:11:08;3.70;;;2.25;;
37535;SDS011;23379;51.554;6.736;2023-07-08T01:13:35;3.85;;;2.10;;
37535;SDS011;23379;51.554;6.736;2023-07-08T01:16:05;4.55;;;2.15;;
37535;SDS011;23379;51.554;6.736;2023-07-08T01:18:31;5.72;;;2.30;;
37535;SDS011;23379;51.554;6.736;2023-07-08T01:21:03;4.65;;;2.17;;
37535;SDS011;23379;51.554;6.736;2023-07-08T01:23:31;5.65;;;2.30;;
37535;SDS011;23379;51.554;6.736;2023-07-08T01:25:57;5.72;;;2.58;;
37535;SDS011;23379;51.554;6.736;2023-07-08T01:28:24;4.18;;;2.20;;
37535;SDS011;23379;51.554;6.736;2023-07-08T01:30:51;5.57;;;2.33;;
37535;SDS011;23379;51.554;6.736;2023-07-08T01:33:18;5.22;;;2.13;;
37535;SDS011;23379;51.554;6.736;2023-07-08T01:35:46;4.50;;;2.50;;
37535;SDS011;23379;51.554;6.736;2023-07-08T01:38:14;5.38;;;2.42;;
37535;SDS011;23379;51.554;6.736;2023-07-08T01:40:51;4.35;;;2.25;;
37535;SDS011;23379;51.554;6.736;2023-07-08T01:43:21;2.95;;;2.25;;
37535;SDS011;23379;51.554;6.736;2023-07-08T01:45:47;4.70;;;2.10;;
37535;SDS011;23379;51.554;6.736;2023-07-08T01:48:15;3.78;;;2.33;;
37535;SDS011;23379;51.554;6.736;2023-07-08T01:51:03;6.55;;;2.22;;
37535;SDS011;23379;51.554;6.736;2023-07-08T01:53:33;4.13;;;2.22;;
37535;SDS011;23379;51.554;6.736;2023-07-08T01:56:01;3.75;;;2.30;;
37535;SDS011;23379;51.554;6.736;2023-07-08T01:58:28;8.13;;;2.35;;
37535;SDS011;23379;51.554;6.736;2023-07-08T02:00:54;7.45;;;2.03;;
37535;SDS011;23379;51.554;6.736;2023-07-08T02:03:19;5.72;;;2.78;;
37535;SDS011;23379;51.554;6.736;2023-07-08T02:05:45;6.20;;;2.28;;
37535;SDS011;23379;51.554;6.736;2023-07-08T02:08:11;4.97;;;2.38;;
37535;SDS011;23379;51.554;6.736;2023-07-08T02:10:37;6.88;;;2.33;;
37535;SDS011;23379;51.554;6.736;2023-07-08T02:13:04;3.63;;;2.20;;
37535;SDS011;23379;51.554;6.736;2023-07-08T02:15:29;6.53;;;2.33;;
37535;SDS011;23379;51.554;6.736;2023-07-08T02:17:55;3.80;;;2.40;;
37535;SDS011;23379;51.554;6.736;2023-07-08T02:20:20;3.13;;;2.30;;
37535;SDS011;23379;51.554;6.736;2023-07-08T02:22:46;7.10;;;2.22;;
37535;SDS011;23379;51.554;6.736;2023-07-08T02:25:11;3.90;;;2.30;;
37535;SDS011;23379;51.554;6.736;2023-07-08T02:27:37;3.75;;;2.15;;
37535;SDS011;23379;51.554;6.736;2023-07-08T02:30:03;4.47;;;2.38;;
37535;SDS011;23379;51.554;6.736;2023-07-08T02:32:29;5.47;;;2.30;;
37535;SDS011;23379;51.554;6.736;2023-07-08T02:34:54;6.53;;;2.28;;
37535;SDS011;23379;51.554;6.736;2023-07-08T02:37:20;3.92;;;2.42;;
37535;SDS011;23379;51.554;6.736;2023-07-08T02:39:45;4.85;;;2.60;;
37535;SDS011;23379;51.554;6.736;2023-07-08T02:42:11;4.65;;;2.10;;
37535;SDS011;23379;51.554;6.736;2023-07-08T02:44:36;4.40;;;2.20;;
37535;SDS011;23379;51.554;6.736;2023-07-08T02:47:01;3.83;;;2.20;;
37535;SDS011;23379;51.554;6.736;2023-07-08T02:49:27;8.85;;;2.55;;
37535;SDS011;23379;51.554;6.736;2023-07-08T02:51:52;6.53;;;2.20;;
37535;SDS011;23379;51.554;6.736;2023-07-08T02:54:18;4.80;;;2.50;;
37535;SDS011;23379;51.554;6.736;2023-07-08T02:56:43;4.30;;;2.00;;
37535;SDS011;23379;51.554;6.736;2023-07-08T02:59:08;3.15;;;2.30;;
37535;SDS011;23379;51.554;6.736;2023-07-08T03:01:34;7.70;;;2.53;;
37535;SDS011;23379;51.554;6.736;2023-07-08T03:04:07;4.03;;;2.20;;
37535;SDS011;23379;51.554;6.736;2023-07-08T03:06:37;2.60;;;1.92;;
37535;SDS011;23379;51.554;6.736;2023-07-08T03:09:03;3.30;;;2.00;;
37535;SDS011;23379;51.554;6.736;2023-07-08T03:11:29;3.47;;;2.10;;
37535;SDS011;23379;51.554;6.736;2023-07-08T03:13:54;3.95;;;2.20;;
37535;SDS011;23379;51.554;6.736;2023-07-08T03:16:20;3.63;;;2.60;;
37535;SDS011;23379;51.554;6.736;2023-07-08T03:18:45;4.05;;;2.30;;
37535;SDS011;23379;51.554;6.736;2023-07-08T03:21:11;9.32;;;2.90;;
37535;SDS011;23379;51.554;6.736;2023-07-08T03:23:38;4.32;;;2.60;;
37535;SDS011;23379;51.554;6.736;2023-07-08T03:26:03;5.45;;;2.42;;
37535;SDS011;23379;51.554;6.736;2023-07-08T03:28:29;4.35;;;2.45;;
37535;SDS011;23379;51.554;6.736;2023-07-08T03:30:54;5.07;;;2.75;;
37535;SDS011;23379;51.554;6.736;2023-07-08T03:33:20;6.05;;;2.70;;
37535;SDS011;23379;51.554;6.736;2023-07-08T03:35:45;8.02;;;2.70;;
37535;SDS011;23379;51.554;6.736;2023-07-08T03:38:11;3.55;;;2.50;;
37535;SDS011;23379;51.554;6.736;2023-07-08T03:40:37;6.70;;;2.90;;
37535;SDS011;23379;51.554;6.736;2023-07-08T03:43:02;6.28;;;2.25;;
37535;SDS011;23379;51.554;6.736;2023-07-08T03:45:27;4.07;;;2.50;;
37535;SDS011;23379;51.554;6.736;2023-07-08T03:47:53;7.28;;;2.53;;
37535;SDS011;23379;51.554;6.736;2023-07-08T03:50:19;6.30;;;2.70;;
37535;SDS011;23379;51.554;6.736;2023-07-08T03:52:47;6.57;;;2.65;;
37535;SDS011;23379;51.554;6.736;2023-07-08T03:55:12;5.05;;;2.45;;
37535;SDS011;23379;51.554;6.736;2023-07-08T03:57:38;4.97;;;2.78;;
37535;SDS011;23379;51.554;6.736;2023-07-08T04:00:04;6.72;;;2.83;;
37535;SDS011;23379;51.554;6.736;2023-07-08T04:02:30;3.50;;;2.40;;
37535;SDS011;23379;51.554;6.736;2023-07-08T04:04:55;4.72;;;2.55;;
37535;SDS011;23379;51.554;6.736;2023-07-08T04:07:20;7.03;;;2.63;;
37535;SDS011;23379;51.554;6.736;2023-07-08T04:09:46;7.53;;;2.50;;
37535;SDS011;23379;51.554;6.736;2023-07-08T04:12:15;4.55;;;2.50;;
37535;SDS011;23379;51.554;6.736;2023-07-08T04:14:40;7.40;;;2.40;;
37535;SDS011;23379;51.554;6.736;2023-07-08T04:17:07;4.07;;;2.20;;
37535;SDS011;23379;51.554;6.736;2023-07-08T04:19:34;4.80;;;2.73;;
37535;SDS011;23379;51.554;6.736;2023-07-08T04:22:00;3.22;;;2.28;;
37535;SDS011;23379;51.554;6.736;2023-07-08T04:24:26;7.55;;;2.95;;
37535;SDS011;23379;51.554;6.736;2023-07-08T04:26:51;4.35;;;2.60;;
37535;SDS011;23379;51.554;6.736;2023-07-08T04:29:18;4.63;;;2.47;;
37535;SDS011;23379;51.554;6.736;2023-07-08T04:31:45;6.88;;;2.90;;
37535;SDS011;23379;51.554;6.736;2023-07-08T04:34:11;2.90;;;2.25;;
37535;SDS011;23379;51.554;6.736;2023-07-08T04:36:37;5.95;;;2.35;;
37535;SDS011;23379;51.554;6.736;2023-07-08T04:39:03;4.38;;;2.92;;
37535;SDS011;23379;51.554;6.736;2023-07-08T04:41:30;4.18;;;2.75;;
37535;SDS011;23379;51.554;6.736;2023-07-08T04:43:56;9.65;;;2.50;;
37535;SDS011;23379;51.554;6.736;2023-07-08T04:46:44;6.75;;;2.63;;
37535;SDS011;23379;51.554;6.736;2023-07-08T04:49:10;7.45;;;2.75;;
37535;SDS011;23379;51.554;6.736;2023-07-08T04:51:36;4.25;;;2.85;;
37535;SDS011;23379;51.554;6.736;2023-07-08T04:54:02;8.07;;;2.50;;
37535;SDS011;23379;51.554;6.736;2023-07-08T04:56:35;3.65;;;2.50;;
37535;SDS011;23379;51.554;6.736;2023-07-08T04:59:04;4.20;;;2.47;;
37535;SDS011;23379;51.554;6.736;2023-07-08T05:01:30;5.95;;;2.70;;
37535;SDS011;23379;51.554;6.736;2023-07-08T05:03:56;5.25;;;2.92;;
37535;SDS011;23379;51.554;6.736;2023-07-08T05:06:21;5.93;;;2.85;;
37535;SDS011;23379;51.554;6.736;2023-07-08T05:08:47;8.15;;;2.53;;
37535;SDS011;23379;51.554;6.736;2023-07-08T05:11:12;2.92;;;2.60;;
37535;SDS011;23379;51.554;6.736;2023-07-08T05:13:37;5.72;;;2.50;;
37535;SDS011;23379;51.554;6.736;2023-07-08T05:16:03;5.80;;;2.72;;
37535;SDS011;23379;51.554;6.736;2023-07-08T05:18:28;5.40;;;2.60;;
37535;SDS011;23379;51.554;6.736;2023-07-08T05:20:54;5.47;;;2.50;;
37535;SDS011;23379;51.554;6.736;2023-07-08T05:23:20;5.97;;;2.38;;
37535;SDS011;23379;51.554;6.736;2023-07-08T05:25:49;5.20;;;2.72;;
37535;SDS011;23379;51.554;6.736;2023-07-08T05:28:15;6.43;;;2.88;;
37535;SDS011;23379;51.554;6.736;2023-07-08T05:30:40;5.07;;;2.95;;
37535;SDS011;23379;51.554;6.736;2023-07-08T05:33:06;4.30;;;2.70;;
37535;SDS011;23379;51.554;6.736;2023-07-08T05:35:32;7.95;;;3.80;;
37535;SDS011;23379;51.554;6.736;2023-07-08T05:37:58;7.93;;;3.20;;
37535;SDS011;23379;51.554;6.736;2023-07-08T05:40:23;5.18;;;3.03;;
37535;SDS011;23379;51.554;6.736;2023-07-08T05:42:49;4.10;;;2.90;;
37535;SDS011;23379;51.554;6.736;2023-07-08T05:45:14;4.88;;;2.88;;
37535;SDS011;23379;51.554;6.736;2023-07-08T05:47:39;8.75;;;3.22;;
37535;SDS011;23379;51.554;6.736;2023-07-08T05:50:05;5.63;;;2.50;;
37535;SDS011;23379;51.554;6.736;2023-07-08T05:52:31;5.85;;;2.65;;
37535;SDS011;23379;51.554;6.736;2023-07-08T05:54:56;6.70;;;2.70;;
37535;SDS011;23379;51.554;6.736;2023-07-08T05:57:21;6.00;;;2.80;;
37535;SDS011;23379;51.554;6.736;2023-07-08T05:59:48;6.22;;;2.72;;
37535;SDS011;23379;51.554;6.736;2023-07-08T06:02:15;7.00;;;2.85;;
37535;SDS011;23379;51.554;6.736;2023-07-08T06:04:41;8.55;;;3.00;;
37535;SDS011;23379;51.554;6.736;2023-07-08T06:07:06;4.95;;;2.40;;
37535;SDS011;23379;51.554;6.736;2023-07-08T06:09:32;6.43;;;2.90;;
37535;SDS011;23379;51.554;6.736;2023-07-08T06:11:57;9.93;;;3.13;;
37535;SDS011;23379;51.554;6.736;2023-07-08T06:14:22;6.35;;;2.63;;
37535;SDS011;23379;51.554;6.736;2023-07-08T06:16:48;6.70;;;2.70;;
37535;SDS011;23379;51.554;6.736;2023-07-08T06:19:13;7.55;;;2.83;;
37535;SDS011;23379;51.554;6.736;2023-07-08T06:21:40;5.43;;;2.80;;
37535;SDS011;23379;51.554;6.736;2023-07-08T06:24:05;4.50;;;3.10;;
37535;SDS011;23379;51.554;6.736;2023-07-08T06:26:31;8.63;;;2.97;;
37535;SDS011;23379;51.554;6.736;2023-07-08T06:28:56;7.32;;;2.80;;
37535;SDS011;23379;51.554;6.736;2023-07-08T06:31:22;5.95;;;2.90;;
37535;SDS011;23379;51.554;6.736;2023-07-08T06:33:47;5.15;;;2.75;;
37535;SDS011;23379;51.554;6.736;2023-07-08T06:36:12;10.50;;;2.92;;
37535;SDS011;23379;51.554;6.736;2023-07-08T06:38:38;5.15;;;2.80;;
37535;SDS011;23379;51.554;6.736;2023-07-08T06:41:03;6.80;;;3.30;;
37535;SDS011;23379;51.554;6.736;2023-07-08T06:43:28;10.10;;;3.35;;
37535;SDS011;23379;51.554;6.736;2023-07-08T06:45:54;5.20;;;2.92;;
37535;SDS011;23379;51.554;6.736;2023-07-08T06:48:19;6.68;;;3.15;;
37535;SDS011;23379;51.554;6.736;2023-07-08T06:50:48;6.13;;;3.35;;
37535;SDS011;23379;51.554;6.736;2023-07-08T06:53:14;7.07;;;3.00;;
37535;SDS011;23379;51.554;6.736;2023-07-08T06:55:40;6.07;;;2.83;;
37535;SDS011;23379;51.554;6.736;2023-07-08T06:58:05;3.00;;;2.55;;
37535;SDS011;23379;51.554;6.736;2023-07-08T07:00:31;7.50;;;3.03;;
37535;SDS011;23379;51.554;6.736;2023-07-08T07:02:56;4.47;;;2.75;;
37535;SDS011;23379;51.554;6.736;2023-07-08T07:05:21;5.45;;;2.78;;
37535;SDS011;23379;51.554;6.736;2023-07-08T07:07:47;5.82;;;2.90;;
37535;SDS011;23379;51.554;6.736;2023-07-08T07:10:12;11.55;;;3.70;;
37535;SDS011;23379;51.554;6.736;2023-07-08T07:12:37;4.38;;;2.67;;
37535;SDS011;23379;51.554;6.736;2023-07-08T07:15:03;7.32;;;2.95;;
37535;SDS011;23379;51.554;6.736;2023-07-08T07:17:29;9.65;;;3.42;;
37535;SDS011;23379;51.554;6.736;2023-07-08T07:19:55;5.88;;;3.58;;
37535;SDS011;23379;51.554;6.736;2023-07-08T07:22:20;6.47;;;3.67;;
37535;SDS011;23379;51.554;6.736;2023-07-08T07:24:46;6.25;;;3.58;;
37535;SDS011;23379;51.554;6.736;2023-07-08T07:27:11;6.65;;;3.10;;
37535;SDS011;23379;51.554;6.736;2023-07-08T07:29:41;7.22;;;3.97;;
37535;SDS011;23379;51.554;6.736;2023-07-08T07:32:08;9.05;;;3.80;;
37535;SDS011;23379;51.554;6.736;2023-07-08T07:34:34;8.35;;;3.63;;
37535;SDS011;23379;51.554;6.736;2023-07-08T07:36:59;6.40;;;3.65;;
37535;SDS011;23379;51.554;6.736;2023-07-08T07:39:25;5.43;;;3.42;;
37535;SDS011;23379;51.554;6.736;2023-07-08T07:41:50;9.30;;;3.17;;
37535;SDS011;23379;51.554;6.736;2023-07-08T07:44:15;6.35;;;4.22;;
37535;SDS011;23379;51.554;6.736;2023-07-08T07:46:41;9.45;;;4.10;;
37535;SDS011;23379;51.554;6.736;2023-07-08T07:49:06;6.65;;;4.00;;
37535;SDS011;23379;51.554;6.736;2023-07-08T07:51:31;7.28;;;3.92;;
37535;SDS011;23379;51.554;6.736;2023-07-08T07:53:57;7.78;;;4.15;;
37535;SDS011;23379;51.554;6.736;2023-07-08T07:56:22;8.25;;;3.50;;
37535;SDS011;23379;51.554;6.736;2023-07-08T07:58:47;7.10;;;3.90;;
37535;SDS011;23379;51.554;6.736;2023-07-08T08:01:13;10.00;;;3.80;;
37535;SDS011;23379;51.554;6.736;2023-07-08T08:03:38;10.27;;;3.58;;
37535;SDS011;23379;51.554;6.736;2023-07-08T08:06:04;6.70;;;4.18;;
37535;SDS011;23379;51.554;6.736;2023-07-08T08:08:29;6.47;;;3.70;;
37535;SDS011;23379;51.554;6.736;2023-07-08T08:10:55;6.97;;;3.97;;
37535;SDS011;23379;51.554;6.736;2023-07-08T08:13:20;9.85;;;3.65;;
37535;SDS011;23379;51.554;6.736;2023-07-08T08:15:45;4.93;;;3.75;;
37535;SDS011;23379;51.554;6.736;2023-07-08T08:18:11;6.35;;;3.90;;
37535;SDS011;23379;51.554;6.736;2023-07-08T08:20:36;6.60;;;4.32;;
37535;SDS011;23379;51.554;6.736;2023-07-08T08:23:02;10.18;;;4.00;;
37535;SDS011;23379;51.554;6.736;2023-07-08T08:25:27;9.23;;;4.30;;
37535;SDS011;23379;51.554;6.736;2023-07-08T08:27:52;6.25;;;4.18;;
37535;SDS011;23379;51.554;6.736;2023-07-08T08:30:18;8.27;;;4.30;;
37535;SDS011;23379;51.554;6.736;2023-07-08T08:32:44;7.85;;;4.60;;
37535;SDS011;23379;51.554;6.736;2023-07-08T08:35:09;6.10;;;4.40;;
37535;SDS011;23379;51.554;6.736;2023-07-08T08:37:34;8.13;;;4.38;;
37535;SDS011;23379;51.554;6.736;2023-07-08T08:40:00;7.78;;;4.95;;
37535;SDS011;23379;51.554;6.736;2023-07-08T08:42:40;13.10;;;4.53;;
37535;SDS011;23379;51.554;6.736;2023-07-08T08:45:15;7.53;;;4.00;;
37535;SDS011;23379;51.554;6.736;2023-07-08T08:47:54;6.82;;;4.13;;
37535;SDS011;23379;51.554;6.736;2023-07-08T08:50:26;6.88;;;4.00;;
37535;SDS011;23379;51.554;6.736;2023-07-08T08:53:09;6.80;;;4.32;;
37535;SDS011;23379;51.554;6.736;2023-07-08T08:55:37;7.07;;;4.10;;
37535;SDS011;23379;51.554;6.736;2023-07-08T08:58:11;5.97;;;4.32;;
37535;SDS011;23379;51.554;6.736;2023-07-08T09:00:59;7.27;;;4.47;;
37535;SDS011;23379;51.554;6.736;2023-07-08T09:06:18;6.55;;;4.10;;
37535;SDS011;23379;51.554;6.736;2023-07-08T09:08:46;7.00;;;4.00;;
37535;SDS011;23379;51.554;6.736;2023-07-08T09:11:15;15.35;;;3.95;;
37535;SDS011;23379;51.554;6.736;2023-07-08T09:13:55;5.47;;;4.07;;
37535;SDS011;23379;51.554;6.736;2023-07-08T09:22:02;7.93;;;4.63;;
37535;SDS011;23379;51.554;6.736;2023-07-08T09:24:36;6.70;;;4.10;;
37535;SDS011;23379;51.554;6.736;2023-07-08T09:27:12;7.18;;;5.07;;
37535;SDS011;23379;51.554;6.736;2023-07-08T09:29:38;8.35;;;4.95;;
37535;SDS011;23379;51.554;6.736;2023-07-08T09:32:26;7.28;;;4.55;;
37535;SDS011;23379;51.554;6.736;2023-07-08T09:34:52;8.05;;;4.80;;
37535;SDS011;23379;51.554;6.736;2023-07-08T09:37:21;7.05;;;5.30;;
37535;SDS011;23379;51.554;6.736;2023-07-08T09:39:46;7.32;;;4.78;;
37535;SDS011;23379;51.554;6.736;2023-07-08T09:42:12;7.07;;;4.70;;
37535;SDS011;23379;51.554;6.736;2023-07-08T09:44:39;9.43;;;4.88;;
37535;SDS011;23379;51.554;6.736;2023-07-08T09:47:15;6.75;;;4.57;;
37535;SDS011;23379;51.554;6.736;2023-07-08T09:49:46;9.23;;;5.40;;
37535;SDS011;23379;51.554;6.736;2023-07-08T09:52:12;5.60;;;4.00;;
37535;SDS011;23379;51.554;6.736;2023-07-08T09:54:40;5.57;;;4.78;;
37535;SDS011;23379;51.554;6.736;2023-07-08T09:57:11;9.23;;;4.13;;
37535;SDS011;23379;51.554;6.736;2023-07-08T09:59:47;7.88;;;3.95;;
37535;SDS011;23379;51.554;6.736;2023-07-08T10:04:52;5.18;;;3.60;;
37535;SDS011;23379;51.554;6.736;2023-07-08T10:07:18;6.90;;;3.47;;
37535;SDS011;23379;51.554;6.736;2023-07-08T10:09:43;7.15;;;3.80;;
37535;SDS011;23379;51.554;6.736;2023-07-08T10:12:14;8.10;;;3.90;;
37535;SDS011;23379;51.554;6.736;2023-07-08T10:15:23;7.70;;;3.70;;
37535;SDS011;23379;51.554;6.736;2023-07-08T10:17:52;5.53;;;4.35;;
37535;SDS011;23379;51.554;6.736;2023-07-08T10:20:18;5.57;;;3.88;;
37535;SDS011;23379;51.554;6.736;2023-07-08T10:30:30;7.63;;;3.95;;
37535;SDS011;23379;51.554;6.736;2023-07-08T10:33:04;5.45;;;3.58;;
37535;SDS011;23379;51.554;6.736;2023-07-08T10:44:35;7.28;;;3.72;;
37535;SDS011;23379;51.554;6.736;2023-07-08T10:47:15;7.43;;;3.42;;
37535;SDS011;23379;51.554;6.736;2023-07-08T10:52:47;5.22;;;2.83;;
37535;SDS011;23379;51.554;6.736;2023-07-08T10:55:28;5.00;;;3.42;;
37535;SDS011;23379;51.554;6.736;2023-07-08T11:04:02;5.18;;;3.63;;
37535;SDS011;23379;51.554;6.736;2023-07-08T11:09:15;8.38;;;3.90;;
37535;SDS011;23379;51.554;6.736;2023-07-08T11:11:51;9.05;;;3.70;;
37535;SDS011;23379;51.554;6.736;2023-07-08T11:14:36;6.07;;;3.55;;
37535;SDS011;23379;51.554;6.736;2023-07-08T11:17:32;5.55;;;3.50;;
37535;SDS011;23379;51.554;6.736;2023-07-08T11:20:19;6.22;;;3.95;;
37535;SDS011;23379;51.554;6.736;2023-07-08T11:22:57;4.72;;;3.45;;
37535;SDS011;23379;51.554;6.736;2023-07-08T11:25:26;4.68;;;3.70;;
37535;SDS011;23379;51.554;6.736;2023-07-08T11:27:55;5.13;;;3.38;;
37535;SDS011;23379;51.554;6.736;2023-07-08T11:30:23;4.20;;;3.13;;
37535;SDS011;23379;51.554;6.736;2023-07-08T11:33:02;4.38;;;3.50;;
37535;SDS011;23379;51.554;6.736;2023-07-08T11:35:35;5.30;;;3.30;;
37535;SDS011;23379;51.554;6.736;2023-07-08T11:38:01;12.18;;;3.35;;
37535;SDS011;23379;51.554;6.736;2023-07-08T11:40:28;5.28;;;3.17;;
37535;SDS011;23379;51.554;6.736;2023-07-08T11:43:00;6.40;;;3.17;;
37535;SDS011;23379;51.554;6.736;2023-07-08T11:45:31;5.40;;;3.03;;
37535;SDS011;23379;51.554;6.736;2023-07-08T11:50:46;4.97;;;2.88;;
37535;SDS011;23379;51.554;6.736;2023-07-08T11:53:30;7.95;;;3.10;;
37535;SDS011;23379;51.554;6.736;2023-07-08T11:58:27;4.70;;;3.20;;
37535;SDS011;23379;51.554;6.736;2023-07-08T12:03:28;5.18;;;2.90;;
37535;SDS011;23379;51.554;6.736;2023-07-08T12:06:05;6.57;;;3.30;;
37535;SDS011;23379;51.554;6.736;2023-07-08T12:08:51;5.25;;;3.20;;
37535;SDS011;23379;51.554;6.736;2023-07-08T12:11:18;6.63;;;3.25;;
37535;SDS011;23379;51.554;6.736;2023-07-08T12:13:43;6.03;;;3.38;;
37535;SDS011;23379;51.554;6.736;2023-07-08T12:16:10;4.45;;;3.03;;
37535;SDS011;23379;51.554;6.736;2023-07-08T12:18:38;8.90;;;3.22;;
37535;SDS011;23379;51.554;6.736;2023-07-08T12:21:11;4.65;;;2.95;;
37535;SDS011;23379;51.554;6.736;2023-07-08T12:23:43;4.22;;;3.00;;
37535;SDS011;23379;51.554;6.736;2023-07-08T12:26:09;5.05;;;2.65;;
37535;SDS011;23379;51.554;6.736;2023-07-08T12:28:38;6.47;;;3.22;;
37535;SDS011;23379;51.554;6.736;2023-07-08T12:31:21;6.35;;;2.90;;
37535;SDS011;23379;51.554;6.736;2023-07-08T12:33:48;4.82;;;3.58;;
37535;SDS011;23379;51.554;6.736;2023-07-08T12:36:18;9.85;;;3.25;;
37535;SDS011;23379;51.554;6.736;2023-07-08T12:38:50;6.05;;;3.28;;
37535;SDS011;23379;51.554;6.736;2023-07-08T12:41:18;5.57;;;3.00;;
37535;SDS011;23379;51.554;6.736;2023-07-08T12:43:48;6.13;;;3.38;;
37535;SDS011;23379;51.554;6.736;2023-07-08T12:46:16;5.18;;;2.85;;
37535;SDS011;23379;51.554;6.736;2023-07-08T12:48:43;4.45;;;3.10;;
37535;SDS011;23379;51.554;6.736;2023-07-08T12:51:17;5.10;;;3.25;;
37535;SDS011;23379;51.554;6.736;2023-07-08T12:53:46;4.38;;;3.03;;
37535;SDS011;23379;51.554;6.736;2023-07-08T12:56:15;4.80;;;3.45;;
37535;SDS011;23379;51.554;6.736;2023-07-08T12:58:43;6.13;;;3.30;;
37535;SDS011;23379;51.554;6.736;2023-07-08T13:01:16;6.78;;;3.28;;
37535;SDS011;23379;51.554;6.736;2023-07-08T13:03:46;5.28;;;2.85;;
37535;SDS011;23379;51.554;6.736;2023-07-08T13:06:16;3.93;;;3.07;;
37535;SDS011;23379;51.554;6.736;2023-07-08T13:08:42;12.15;;;3.72;;
37535;SDS011;23379;51.554;6.736;2023-07-08T13:11:08;5.32;;;3.60;;
37535;SDS011;23379;51.554;6.736;2023-07-08T13:13:38;7.40;;;3.13;;
37535;SDS011;23379;51.554;6.736;2023-07-08T13:16:09;5.05;;;3.28;;
37535;SDS011;23379;51.554;6.736;2023-07-08T13:18:39;3.65;;;2.70;;
37535;SDS011;23379;51.554;6.736;2023-07-08T13:21:06;5.72;;;3.50;;
37535;SDS011;23379;51.554;6.736;2023-07-08T13:23:33;5.32;;;3.10;;
37535;SDS011;23379;51.554;6.736;2023-07-08T13:26:00;7.40;;;3.47;;
37535;SDS011;23379;51.554;6.736;2023-07-08T13:28:26;7.30;;;3.05;;
37535;SDS011;23379;51.554;6.736;2023-07-08T13:31:01;5.60;;;2.95;;
37535;SDS011;23379;51.554;6.736;2023-07-08T13:33:37;4.57;;;2.83;;
37535;SDS011;23379;51.554;6.736;2023-07-08T13:36:03;6.50;;;3.22;;
37535;SDS011;23379;51.554;6.736;2023-07-08T13:38:37;3.78;;;3.10;;
37535;SDS011;23379;51.554;6.736;2023-07-08T13:41:04;5.97;;;3.20;;
37535;SDS011;23379;51.554;6.736;2023-07-08T13:43:33;9.02;;;2.88;;
37535;SDS011;23379;51.554;6.736;2023-07-08T13:46:00;6.05;;;3.20;;
37535;SDS011;23379;51.554;6.736;2023-07-08T13:48:30;4.93;;;3.30;;
37535;SDS011;23379;51.554;6.736;2023-07-08T13:58:43;6.43;;;2.83;;
37535;SDS011;23379;51.554;6.736;2023-07-08T14:01:16;5.05;;;3.42;;
37535;SDS011;23379;51.554;6.736;2023-07-08T14:03:44;6.53;;;3.38;;
37535;SDS011;23379;51.554;6.736;2023-07-08T14:06:20;7.00;;;3.13;;
37535;SDS011;23379;51.554;6.736;2023-07-08T14:08:47;5.15;;;3.90;;
37535;SDS011;23379;51.554;6.736;2023-07-08T14:11:13;6.07;;;3.70;;
37535;SDS011;23379;51.554;6.736;2023-07-08T14:13:38;7.00;;;2.92;;
37535;SDS011;23379;51.554;6.736;2023-07-08T14:16:05;8.80;;;3.33;;
37535;SDS011;23379;51.554;6.736;2023-07-08T14:18:46;10.73;;;3.67;;
37535;SDS011;23379;51.554;6.736;2023-07-08T14:21:12;7.00;;;3.55;;
37535;SDS011;23379;51.554;6.736;2023-07-08T14:23:37;5.35;;;2.80;;
37535;SDS011;23379;51.554;6.736;2023-07-08T14:26:06;4.45;;;3.45;;
37535;SDS011;23379;51.554;6.736;2023-07-08T14:28:34;4.53;;;3.22;;
37535;SDS011;23379;51.554;6.736;2023-07-08T14:30:59;5.22;;;2.90;;
37535;SDS011;23379;51.554;6.736;2023-07-08T14:33:25;6.05;;;3.08;;
37535;SDS011;23379;51.554;6.736;2023-07-08T14:35:53;5.03;;;2.65;;
37535;SDS011;23379;51.554;6.736;2023-07-08T14:38:18;8.50;;;3.08;;
37535;SDS011;23379;51.554;6.736;2023-07-08T14:40:43;5.25;;;2.58;;
37535;SDS011;23379;51.554;6.736;2023-07-08T14:43:19;7.55;;;2.85;;
37535;SDS011;23379;51.554;6.736;2023-07-08T14:45:52;6.30;;;3.30;;
37535;SDS011;23379;51.554;6.736;2023-07-08T14:48:20;7.95;;;3.40;;
37535;SDS011;23379;51.554;6.736;2023-07-08T14:50:45;7.85;;;3.50;;
37535;SDS011;23379;51.554;6.736;2023-07-08T14:53:15;7.68;;;3.80;;
37535;SDS011;23379;51.554;6.736;2023-07-08T14:55:41;6.45;;;3.15;;
37535;SDS011;23379;51.554;6.736;2023-07-08T14:58:10;5.65;;;3.72;;
37535;SDS011;23379;51.554;6.736;2023-07-08T15:00:49;8.18;;;3.22;;
37535;SDS011;23379;51.554;6.736;2023-07-08T15:03:16;5.57;;;3.65;;
37535;SDS011;23379;51.554;6.736;2023-07-08T15:05:41;8.57;;;3.30;;
37535;SDS011;23379;51.554;6.736;2023-07-08T15:08:07;7.47;;;3.33;;
37535;SDS011;23379;51.554;6.736;2023-07-08T15:10:32;5.57;;;3.35;;
37535;SDS011;23379;51.554;6.736;2023-07-08T15:13:01;4.85;;;2.92;;
37535;SDS011;23379;51.554;6.736;2023-07-08T15:15:28;6.80;;;3.35;;
37535;SDS011;23379;51.554;6.736;2023-07-08T15:17:57;5.60;;;3.10;;
37535;SDS011;23379;51.554;6.736;2023-07-08T15:20:23;8.70;;;3.33;;
37535;SDS011;23379;51.554;6.736;2023-07-08T15:22:49;7.95;;;3.85;;
37535;SDS011;23379;51.554;6.736;2023-07-08T15:25:15;9.13;;;4.00;;
37535;SDS011;23379;51.554;6.736;2023-07-08T15:27:41;7.07;;;3.75;;
37535;SDS011;23379;51.554;6.736;2023-07-08T15:30:24;8.88;;;3.28;;
37535;SDS011;23379;51.554;6.736;2023-07-08T15:32:51;6.65;;;3.60;;
37535;SDS011;23379;51.554;6.736;2023-07-08T15:35:18;4.97;;;3.35;;
37535;SDS011;23379;51.554;6.736;2023-07-08T15:37:51;6.28;;;3.20;;
37535;SDS011;23379;51.554;6.736;2023-07-08T15:40:17;5.72;;;3.25;;
37535;SDS011;23379;51.554;6.736;2023-07-08T15:43:00;6.10;;;3.22;;
37535;SDS011;23379;51.554;6.736;2023-07-08T15:45:30;4.97;;;3.40;;
37535;SDS011;23379;51.554;6.736;2023-07-08T15:47:57;8.18;;;3.30;;
37535;SDS011;23379;51.554;6.736;2023-07-08T15:53:14;5.22;;;3.33;;
37535;SDS011;23379;51.554;6.736;2023-07-08T15:55:42;6.55;;;3.28;;
37535;SDS011;23379;51.554;6.736;2023-07-08T15:58:24;5.53;;;3.50;;